Terminal Aerodrome Forecast
Issued by NWS Paducah, KY

Home | Current Version | Previous Version | Text Only | Print | Product List | Glossary On
Versions: 1 2 3 4 5 6 7 8 9 10 11 12 13 14 15 16 17 18 19 20 21 22
829
FTUS43 KPAH 190403 AAB
TAFEVV
TAF AMD
KEVV 190403Z 1904/1924 22003KT 5SM BR SCT005 OVC020
      TEMPO 1904/1908 3SM BR BKN005
     FM190800 20003KT 3SM BR SCT005 BKN012
      TEMPO 1908/1912 1SM BR BKN005
     FM191500 20005KT P6SM SCT025
     FM191900 17006KT P6SM SCT250=

USA.gov is the U.S. government's official web portal to all federal, state and local government web resources and services.